Time;durP1;ratioP1;P1;durP2;ratioP2;P2;SDS_P1;SDS_P2;PMS_P1;PMS_P2;Temp;Humidity;BMP_temperature;BMP_pressure;BME280_temperature;BME280_humidity;BME280_pressure;Samples;Min_cycle;Max_cycle;Signal;HPM_P1;HPM_P2
2024/01/01 00:01:38;;;;;;;6.60;1.77;;;4.70;99.90;;;;;;5057761;28;20446;-80
2024/01/01 00:04:05;;;;;;;3.53;1.30;;;4.80;99.90;;;;;;5058141;28;20473;-79
2024/01/01 00:06:33;;;;;;;1.47;1.30;;;4.80;99.90;;;;;;5057378;28;20446;-79
2024/01/01 00:09:00;;;;;;;3.67;1.47;;;4.80;99.90;;;;;;5057781;28;20481;-80
2024/01/01 00:11:26;;;;;;;1.30;1.07;;;4.80;99.90;;;;;;5057906;28;20442;-79
2024/01/01 00:13:53;;;;;;;1.23;1.13;;;4.70;99.90;;;;;;5058261;28;20444;-79
2024/01/01 00:16:20;;;;;;;5.50;5.00;;;4.70;99.90;;;;;;5057345;28;20814;-80
2024/01/01 00:18:47;;;;;;;2.73;1.57;;;4.80;99.90;;;;;;5057871;28;20462;-80
2024/01/01 00:21:14;;;;;;;3.47;2.10;;;4.80;99.90;;;;;;5058100;28;20446;-80
2024/01/01 00:23:42;;;;;;;3.50;1.50;;;4.90;99.90;;;;;;5058033;28;20481;-80
2024/01/01 00:26:08;;;;;;;2.10;1.80;;;4.90;99.90;;;;;;5057452;28;20446;-80
2024/01/01 00:28:35;;;;;;;4.40;1.80;;;4.90;99.90;;;;;;5057865;28;20477;-81
2024/01/01 00:31:02;;;;;;;2.33;1.60;;;5.00;99.90;;;;;;5058247;28;20446;-79
2024/01/01 00:33:28;;;;;;;2.43;1.80;;;5.00;99.90;;;;;;5057796;28;20798;-81
2024/01/01 00:35:55;;;;;;;2.13;1.93;;;5.10;99.90;;;;;;5058091;28;20449;-80
2024/01/01 00:38:22;;;;;;;4.00;1.63;;;5.10;99.90;;;;;;5057832;28;20466;-80
2024/01/01 00:40:50;;;;;;;6.67;2.20;;;5.10;99.90;;;;;;5057622;28;20512;-81
2024/01/01 00:43:16;;;;;;;2.20;1.53;;;5.20;99.90;;;;;;5057876;28;20442;-80
2024/01/01 00:45:43;;;;;;;5.47;1.67;;;5.10;99.90;;;;;;5057472;28;20453;-80
2024/01/01 00:48:10;;;;;;;7.47;3.33;;;5.00;99.90;;;;;;5057090;28;20461;-80
2024/01/01 00:50:39;;;;;;;4.80;2.10;;;4.90;99.90;;;;;;5056992;28;20458;-79
2024/01/01 00:53:06;;;;;;;0.83;0.80;;;4.80;99.90;;;;;;5056957;28;20446;-80
2024/01/01 00:55:33;;;;;;;1.50;1.40;;;4.70;99.90;;;;;;5056891;28;20816;-80
2024/01/01 00:58:01;;;;;;;3.63;1.67;;;4.70;99.90;;;;;;5056474;28;20464;-80
2024/01/01 01:00:27;;;;;;;5.20;1.73;;;4.70;99.90;;;;;;5059721;28;20977;-79
2024/01/01 01:02:54;;;;;;;4.50;1.30;;;4.70;99.90;;;;;;5059156;28;20446;-80
2024/01/01 01:05:22;;;;;;;2.23;1.57;;;4.70;99.90;;;;;;5059070;28;20474;-81
2024/01/01 01:07:48;;;;;;;3.93;1.40;;;4.70;99.90;;;;;;5059104;28;20470;-81
2024/01/01 01:10:16;;;;;;;3.37;1.63;;;4.70;99.90;;;;;;5058126;28;20430;-80
2024/01/01 01:12:43;;;;;;;4.57;1.93;;;4.70;99.90;;;;;;5058663;28;20445;-80
2024/01/01 01:15:11;;;;;;;2.50;1.20;;;4.70;99.90;;;;;;5057964;28;20931;-80
2024/01/01 01:17:38;;;;;;;2.97;2.00;;;4.80;99.90;;;;;;5057364;28;20473;-80
2024/01/01 01:20:06;;;;;;;4.83;1.90;;;4.80;99.90;;;;;;5057825;28;20437;-80
2024/01/01 01:22:32;;;;;;;2.10;1.10;;;4.80;99.90;;;;;;5058195;28;20468;-81
2024/01/01 01:24:59;;;;;;;1.87;1.40;;;4.90;99.90;;;;;;5057650;28;20478;-81
2024/01/01 01:27:26;;;;;;;2.47;1.33;;;4.80;99.90;;;;;;5058126;28;20468;-80
2024/01/01 01:29:52;;;;;;;3.33;2.23;;;4.90;99.90;;;;;;5057352;28;20442;-81
2024/01/01 01:32:20;;;;;;;2.00;1.00;;;4.90;99.90;;;;;;5058281;28;20939;-80
2024/01/01 01:34:47;;;;;;;8.53;1.70;;;4.90;99.90;;;;;;5057377;28;20445;-81
2024/01/01 01:37:14;;;;;;;4.83;1.67;;;4.80;99.90;;;;;;5057648;28;20450;-79
2024/01/01 01:39:41;;;;;;;1.93;0.80;;;4.80;99.90;;;;;;5057191;28;20449;-79
2024/01/01 01:42:09;;;;;;;5.27;1.30;;;4.70;99.90;;;;;;5057137;28;20955;-80
2024/01/01 01:44:35;;;;;;;2.63;0.90;;;4.70;99.90;;;;;;5057085;28;20531;-79
2024/01/01 01:47:03;;;;;;;2.23;0.90;;;4.50;99.90;;;;;;5057108;28;20437;-81
2024/01/01 01:49:32;;;;;;;2.47;1.80;;;4.50;99.90;;;;;;5056615;28;20449;-80
2024/01/01 01:51:59;;;;;;;7.10;0.90;;;4.50;99.90;;;;;;5056914;28;20445;-80
2024/01/01 01:54:26;;;;;;;2.13;1.10;;;4.40;99.90;;;;;;5056902;28;20438;-80
2024/01/01 01:56:54;;;;;;;1.60;1.03;;;4.40;99.90;;;;;;5056941;28;20456;-79
2024/01/01 01:59:21;;;;;;;0.97;0.80;;;4.40;99.90;;;;;;5056163;28;20446;-81
2024/01/01 02:01:49;;;;;;;0.90;0.63;;;4.40;99.90;;;;;;5056272;28;20449;-80
2024/01/01 02:04:15;;;;;;;3.10;0.90;;;4.40;99.90;;;;;;5056563;28;21009;-79
2024/01/01 02:06:45;;;;;;;6.30;1.60;;;4.40;99.90;;;;;;5057072;28;20457;-80
2024/01/01 02:09:12;;;;;;;2.50;0.40;;;4.50;99.90;;;;;;5062493;28;20485;-80
2024/01/01 02:11:38;;;;;;;0.70;0.70;;;4.50;99.90;;;;;;5063607;28;20449;-81
2024/01/01 02:14:09;;;;;;;0.73;0.63;;;4.50;99.90;;;;;;5063006;28;20442;-79
2024/01/01 02:16:36;;;;;;;1.50;0.50;;;4.50;99.90;;;;;;5063422;28;20452;-80
2024/01/01 02:19:04;;;;;;;1.33;0.80;;;4.50;99.90;;;;;;5062604;28;20458;-80
2024/01/01 02:21:31;;;;;;;1.50;1.40;;;4.60;99.90;;;;;;5062327;28;20445;-79
2024/01/01 02:23:59;;;;;;;1.83;0.80;;;4.60;99.90;;;;;;5062319;28;20477;-80
2024/01/01 02:26:25;;;;;;;1.63;1.23;;;4.60;99.90;;;;;;5062526;28;20922;-80
2024/01/01 02:28:52;;;;;;;1.20;0.90;;;4.60;99.90;;;;;;5062591;28;20468;-80
2024/01/01 02:31:19;;;;;;;3.23;0.80;;;4.60;99.90;;;;;;5062758;28;20446;-80
2024/01/01 02:33:46;;;;;;;1.80;1.07;;;4.60;99.90;;;;;;5063135;28;20464;-79
2024/01/01 02:36:12;;;;;;;7.30;1.53;;;4.70;99.90;;;;;;5061907;28;20536;-80
2024/01/01 02:38:39;;;;;;;1.13;1.03;;;4.70;99.90;;;;;;5063135;28;20465;-79
2024/01/01 02:41:07;;;;;;;2.10;0.90;;;4.80;99.90;;;;;;5062034;28;20441;-80
2024/01/01 02:43:34;;;;;;;1.83;1.53;;;4.80;99.90;;;;;;5061881;28;20464;-80
2024/01/01 02:46:00;;;;;;;1.10;1.00;;;4.70;99.90;;;;;;5062335;28;21021;-80
2024/01/01 02:48:27;;;;;;;1.90;1.17;;;4.70;99.90;;;;;;5062381;28;20465;-80
2024/01/01 02:50:54;;;;;;;2.50;0.80;;;4.70;99.90;;;;;;5061959;28;20442;-79
2024/01/01 02:53:20;;;;;;;0.80;0.70;;;4.60;99.90;;;;;;5061876;28;20520;-79
2024/01/01 02:55:47;;;;;;;8.13;1.30;;;4.60;99.90;;;;;;5062325;28;20438;-80
2024/01/01 02:58:15;;;;;;;0.97;0.60;;;4.50;99.90;;;;;;5061931;28;20829;-80
2024/01/01 03:00:46;;;;;;;2.57;1.00;;;4.50;99.90;;;;;;5062138;28;20453;-80
2024/01/01 03:03:13;;;;;;;1.03;0.70;;;4.40;99.90;;;;;;5061950;28;20834;-79
2024/01/01 03:05:40;;;;;;;1.00;0.90;;;4.40;99.90;;;;;;5061842;28;20481;-81
2024/01/01 03:08:08;;;;;;;4.60;1.93;;;4.40;99.90;;;;;;5061384;28;20560;-80
2024/01/01 03:10:34;;;;;;;1.43;0.90;;;4.40;99.90;;;;;;5062952;28;20480;-80
2024/01/01 03:13:01;;;;;;;1.03;0.93;;;4.40;99.90;;;;;;5062408;28;20445;-79
2024/01/01 03:15:29;;;;;;;2.07;1.27;;;4.50;99.90;;;;;;5062009;28;20491;-80
2024/01/01 03:17:56;;;;;;;2.87;1.70;;;4.50;99.90;;;;;;5063275;28;20469;-81
2024/01/01 03:20:27;;;;;;;3.83;1.33;;;4.50;99.90;;;;;;5060125;28;20446;-79
2024/01/01 03:22:53;;;;;;;2.30;0.90;;;4.60;99.90;;;;;;5059930;28;20430;-80
2024/01/01 03:25:20;;;;;;;5.10;1.47;;;4.70;99.90;;;;;;5059191;28;20477;-80
2024/01/01 03:27:47;;;;;;;5.77;1.90;;;4.80;99.90;;;;;;5059139;28;20465;-80
2024/01/01 03:30:14;;;;;;;1.73;1.53;;;4.80;99.90;;;;;;5059338;28;20970;-81
2024/01/01 03:32:42;;;;;;;2.00;0.80;;;4.80;99.90;;;;;;5059361;28;20446;-80
2024/01/01 03:35:09;;;;;;;0.50;0.50;;;4.80;99.90;;;;;;5059203;28;20442;-81
2024/01/01 03:37:36;;;;;;;1.27;0.90;;;4.90;99.90;;;;;;5058960;28;20878;-79
2024/01/01 03:40:03;;;;;;;3.07;1.43;;;4.90;99.90;;;;;;5058863;28;20442;-80
2024/01/01 03:42:30;;;;;;;1.90;1.03;;;4.90;99.90;;;;;;5059593;28;20442;-81
2024/01/01 03:44:57;;;;;;;3.97;1.23;;;4.90;99.90;;;;;;5058767;28;20985;-81
2024/01/01 03:47:24;;;;;;;0.70;0.60;;;4.90;99.90;;;;;;5058422;28;20480;-81
2024/01/01 03:49:52;;;;;;;1.93;0.97;;;5.00;99.90;;;;;;5058758;28;20442;-81
2024/01/01 03:52:19;;;;;;;8.43;0.77;;;5.00;99.90;;;;;;5059005;28;20451;-81
2024/01/01 03:54:45;;;;;;;0.90;0.53;;;5.00;99.90;;;;;;5059011;28;20815;-81
2024/01/01 03:57:12;;;;;;;1.90;0.40;;;4.90;99.90;;;;;;5059100;28;20449;-80
2024/01/01 03:59:39;;;;;;;2.80;0.70;;;4.90;99.90;;;;;;5058833;28;20449;-79
2024/01/01 04:02:06;;;;;;;0.60;0.40;;;4.80;99.90;;;;;;5058413;28;20939;-80
2024/01/01 04:04:32;;;;;;;6.23;0.40;;;4.70;99.90;;;;;;5058140;28;20536;-81
2024/01/01 04:07:00;;;;;;;2.00;0.60;;;4.60;99.90;;;;;;5058320;28;20453;-81
2024/01/01 04:09:27;;;;;;;0.70;0.40;;;4.60;99.90;;;;;;5057767;28;21025;-80
2024/01/01 04:11:54;;;;;;;0.83;0.50;;;4.50;99.90;;;;;;5057808;28;20453;-80
2024/01/01 04:14:21;;;;;;;1.37;0.50;;;4.50;99.90;;;;;;5058148;28;20446;-80
2024/01/01 04:16:47;;;;;;;0.40;0.40;;;4.50;99.90;;;;;;5057706;28;20441;-80
2024/01/01 04:19:14;;;;;;;0.40;0.40;;;4.40;99.90;;;;;;5057921;28;20894;-80
2024/01/01 04:21:41;;;;;;;0.50;0.40;;;4.40;99.90;;;;;;5057715;28;20445;-80
2024/01/01 04:24:09;;;;;;;0.97;0.40;;;4.40;99.90;;;;;;5058074;28;20445;-81
2024/01/01 04:26:38;;;;;;;0.30;0.30;;;4.50;99.90;;;;;;5057534;28;20432;-80
2024/01/01 04:29:05;;;;;;;0.30;0.30;;;4.50;99.90;;;;;;5057878;28;20461;-81
2024/01/01 04:31:31;;;;;;;2.03;0.53;;;4.50;99.90;;;;;;5056924;28;20445;-79
2024/01/01 04:33:58;;;;;;;0.50;0.40;;;4.60;99.90;;;;;;5057740;28;20452;-80
2024/01/01 04:36:25;;;;;;;0.30;0.27;;;4.60;99.90;;;;;;5057687;28;20441;-81
2024/01/01 04:38:52;;;;;;;1.27;0.60;;;4.60;99.90;;;;;;5057314;28;20464;-79
2024/01/01 04:41:20;;;;;;;4.10;0.50;;;4.60;99.90;;;;;;5057528;28;20446;-79
2024/01/01 04:43:47;;;;;;;0.57;0.30;;;4.60;99.90;;;;;;5057083;28;20441;-80
2024/01/01 04:46:14;;;;;;;1.13;0.70;;;4.50;99.90;;;;;;5056795;28;20482;-80
2024/01/01 04:48:40;;;;;;;0.50;0.30;;;4.50;99.90;;;;;;5057296;28;20470;-80
2024/01/01 04:51:07;;;;;;;4.10;0.50;;;4.50;99.90;;;;;;5056885;28;20437;-80
2024/01/01 04:53:34;;;;;;;0.37;0.30;;;4.50;99.90;;;;;;5057645;28;20438;-80
2024/01/01 04:56:01;;;;;;;0.30;0.20;;;4.40;99.90;;;;;;5057174;28;20422;-79
2024/01/01 04:58:29;;;;;;;1.90;0.50;;;4.50;99.90;;;;;;5056803;28;20466;-79
2024/01/01 05:00:55;;;;;;;1.13;0.40;;;4.50;99.90;;;;;;5056937;28;20446;-80
2024/01/01 05:03:22;;;;;;;0.30;0.20;;;4.60;99.90;;;;;;5056434;28;20456;-80
2024/01/01 05:05:49;;;;;;;0.30;0.30;;;4.70;99.90;;;;;;5056829;28;20491;-81
2024/01/01 05:08:15;;;;;;;0.50;0.50;;;4.70;99.90;;;;;;5056584;28;20477;-79
2024/01/01 05:10:42;;;;;;;0.30;0.30;;;4.70;99.90;;;;;;5056700;28;20446;-80
2024/01/01 05:13:09;;;;;;;0.30;0.30;;;4.60;99.90;;;;;;5056024;28;20454;-80
2024/01/01 05:15:38;;;;;;;1.60;0.30;;;4.60;99.90;;;;;;5056892;28;20452;-79
2024/01/01 05:18:05;;;;;;;0.30;0.30;;;4.50;99.90;;;;;;5056589;28;20461;-80
2024/01/01 05:20:32;;;;;;;1.73;0.30;;;4.40;99.90;;;;;;5058193;28;20834;-80
2024/01/01 05:22:58;;;;;;;0.87;0.50;;;4.40;99.90;;;;;;5057116;28;20859;-80
2024/01/01 05:25:25;;;;;;;0.40;0.30;;;4.30;99.90;;;;;;5056619;28;20485;-80
2024/01/01 05:27:52;;;;;;;0.50;0.50;;;4.30;99.90;;;;;;5056791;28;20462;-80
2024/01/01 05:30:19;;;;;;;0.30;0.30;;;4.20;99.90;;;;;;5056532;28;20449;-79
2024/01/01 05:32:47;;;;;;;0.50;0.40;;;4.20;99.90;;;;;;5056743;28;20449;-80
2024/01/01 05:35:14;;;;;;;0.40;0.30;;;4.20;99.90;;;;;;5056540;28;20442;-80
2024/01/01 05:37:40;;;;;;;0.40;0.40;;;4.10;99.90;;;;;;5057420;28;20477;-80
2024/01/01 05:40:08;;;;;;;1.23;0.30;;;4.20;99.90;;;;;;5056186;28;20974;-80
2024/01/01 05:42:35;;;;;;;0.30;0.30;;;4.20;99.90;;;;;;5054918;28;20485;-80
2024/01/01 05:45:02;;;;;;;0.30;0.30;;;4.20;99.90;;;;;;5056205;28;20504;-80
2024/01/01 05:47:29;;;;;;;6.80;0.50;;;4.10;99.90;;;;;;5056204;28;20470;-79
2024/01/01 05:49:57;;;;;;;0.30;0.30;;;4.10;99.90;;;;;;5055694;28;20450;-79
2024/01/01 05:52:23;;;;;;;0.40;0.40;;;4.10;99.90;;;;;;5056374;28;20448;-79
2024/01/01 05:54:50;;;;;;;0.40;0.30;;;4.20;99.90;;;;;;5055985;28;20521;-80
2024/01/01 05:57:17;;;;;;;1.40;0.30;;;4.20;99.90;;;;;;5056507;28;20466;-80
2024/01/01 05:59:44;;;;;;;0.40;0.30;;;4.20;99.90;;;;;;5056535;28;20453;-79
2024/01/01 06:02:11;;;;;;;0.40;0.40;;;4.30;99.90;;;;;;5055688;28;20441;-80
2024/01/01 06:04:37;;;;;;;0.30;0.30;;;4.20;99.90;;;;;;5055750;28;20448;-80
2024/01/01 06:07:06;;;;;;;0.30;0.30;;;4.20;99.90;;;;;;5055614;28;20482;-80
2024/01/01 06:09:34;;;;;;;1.27;0.50;;;4.20;99.90;;;;;;5055849;28;20480;-80
2024/01/01 06:12:00;;;;;;;0.70;0.50;;;4.10;99.90;;;;;;5056017;28;20477;-80
2024/01/01 06:14:27;;;;;;;0.30;0.20;;;4.20;99.90;;;;;;5056495;28;20448;-79
2024/01/01 06:16:54;;;;;;;0.30;0.30;;;4.20;99.90;;;;;;5056112;28;20464;-80
2024/01/01 06:19:21;;;;;;;1.23;0.70;;;4.20;99.90;;;;;;5056107;28;20476;-80
2024/01/01 06:21:47;;;;;;;0.57;0.30;;;4.30;99.90;;;;;;5056207;28;20759;-79
2024/01/01 06:24:15;;;;;;;0.60;0.53;;;4.40;99.90;;;;;;5055894;28;20445;-80
2024/01/01 06:26:42;;;;;;;0.30;0.30;;;4.40;99.90;;;;;;5055056;28;20481;-79
2024/01/01 06:29:09;;;;;;;0.80;0.70;;;4.50;99.90;;;;;;5056360;28;20466;-79
2024/01/01 06:31:35;;;;;;;0.60;0.40;;;4.50;99.90;;;;;;5056345;28;20469;-80
2024/01/01 06:34:02;;;;;;;0.67;0.40;;;4.50;99.90;;;;;;5055644;28;20441;-79
2024/01/01 06:36:29;;;;;;;1.53;0.50;;;4.60;99.90;;;;;;5055687;28;20450;-80
2024/01/01 06:38:56;;;;;;;0.40;0.30;;;4.60;99.90;;;;;;5056486;28;20462;-80
2024/01/01 06:41:24;;;;;;;0.37;0.30;;;4.60;99.90;;;;;;5055362;28;20452;-79
2024/01/01 06:43:51;;;;;;;9.50;1.90;;;4.60;99.90;;;;;;5055794;28;20471;-80
2024/01/01 06:46:18;;;;;;;0.30;0.27;;;4.60;99.90;;;;;;5054931;28;20488;-79
2024/01/01 06:48:44;;;;;;;0.60;0.40;;;4.60;99.90;;;;;;5055898;28;21007;-79
2024/01/01 06:51:11;;;;;;;0.50;0.50;;;4.60;99.90;;;;;;5055569;28;20461;-79
2024/01/01 06:53:38;;;;;;;0.50;0.30;;;4.50;99.90;;;;;;5056988;28;20450;-80
2024/01/01 06:56:05;;;;;;;0.40;0.30;;;4.50;99.90;;;;;;5058416;28;20457;-80
2024/01/01 06:58:33;;;;;;;0.37;0.27;;;4.40;99.90;;;;;;5059459;28;20842;-79
2024/01/01 07:01:00;;;;;;;0.30;0.30;;;4.30;99.90;;;;;;5059402;28;20445;-79
2024/01/01 07:03:29;;;;;;;7.23;0.40;;;4.30;99.90;;;;;;5059106;28;20481;-79
2024/01/01 07:05:55;;;;;;;0.50;0.30;;;4.30;99.90;;;;;;5059004;28;20482;-80
2024/01/01 07:08:23;;;;;;;0.30;0.30;;;4.30;99.90;;;;;;5058032;28;20492;-79
2024/01/01 07:10:50;;;;;;;0.40;0.30;;;4.30;99.90;;;;;;5058339;28;20450;-79
2024/01/01 07:13:17;;;;;;;0.40;0.40;;;4.30;99.90;;;;;;5058538;28;20449;-79
2024/01/01 07:15:45;;;;;;;0.30;0.30;;;4.30;99.90;;;;;;5058740;28;20449;-79
2024/01/01 07:18:12;;;;;;;1.23;0.30;;;4.30;99.90;;;;;;5059235;28;20461;-80
2024/01/01 07:20:38;;;;;;;0.40;0.30;;;4.30;99.90;;;;;;5058973;28;20449;-79
2024/01/01 07:23:05;;;;;;;0.30;0.30;;;4.40;99.90;;;;;;5058432;28;20437;-79
2024/01/01 07:25:32;;;;;;;0.30;0.20;;;4.30;99.90;;;;;;5058418;28;21005;-79
2024/01/01 07:27:59;;;;;;;0.40;0.30;;;4.30;99.90;;;;;;5059819;28;20461;-79
2024/01/01 07:30:26;;;;;;;1.50;0.30;;;4.30;99.90;;;;;;5060020;28;20579;-79
2024/01/01 07:32:55;;;;;;;0.30;0.20;;;4.30;99.90;;;;;;5059443;28;20449;-79
2024/01/01 07:35:21;;;;;;;0.30;0.30;;;4.30;99.90;;;;;;5059810;28;20446;-80
2024/01/01 07:37:48;;;;;;;3.17;0.63;;;4.30;99.90;;;;;;5058784;28;20466;-80
2024/01/01 07:40:15;;;;;;;1.30;0.27;;;4.30;99.90;;;;;;5058648;28;20450;-80
2024/01/01 07:42:41;;;;;;;0.30;0.30;;;4.30;99.90;;;;;;5057900;28;20452;-79
2024/01/01 07:45:09;;;;;;;0.47;0.30;;;4.30;99.90;;;;;;5058235;28;20812;-79
2024/01/01 07:47:36;;;;;;;0.67;0.63;;;4.30;99.90;;;;;;5057808;28;20496;-81
2024/01/01 07:50:06;;;;;;;0.30;0.30;;;4.30;99.90;;;;;;5058085;28;20453;-81
2024/01/01 07:52:34;;;;;;;1.07;0.60;;;4.40;99.90;;;;;;5057718;28;20427;-80
2024/01/01 07:55:01;;;;;;;0.30;0.20;;;4.40;99.90;;;;;;5058367;28;20454;-80
2024/01/01 07:57:27;;;;;;;0.47;0.40;;;4.40;99.90;;;;;;5057690;28;20458;-80
2024/01/01 07:59:56;;;;;;;0.30;0.20;;;4.40;99.90;;;;;;5057848;28;20449;-81
2024/01/01 08:02:23;;;;;;;0.30;0.30;;;4.40;99.90;;;;;;5057652;28;20441;-80
2024/01/01 08:04:50;;;;;;;0.30;0.20;;;4.60;99.90;;;;;;5057071;28;20787;-80
2024/01/01 08:07:18;;;;;;;0.30;0.27;;;4.70;99.90;;;;;;5059344;28;20575;-80
2024/01/01 08:09:44;;;;;;;0.30;0.20;;;4.70;99.90;;;;;;5060418;28;20488;-80
2024/01/01 08:12:11;;;;;;;7.10;0.37;;;4.80;99.90;;;;;;5060029;28;20446;-80
2024/01/01 08:14:40;;;;;;;0.30;0.30;;;4.80;99.90;;;;;;5059560;28;20446;-79
2024/01/01 08:17:08;;;;;;;2.00;0.70;;;4.90;99.90;;;;;;5059675;28;20438;-79
2024/01/01 08:19:34;;;;;;;0.30;0.30;;;4.80;99.90;;;;;;5059511;28;20544;-80
2024/01/01 08:22:01;;;;;;;0.33;0.33;;;4.80;99.90;;;;;;5060009;28;20442;-80
2024/01/01 08:24:29;;;;;;;0.40;0.40;;;4.80;99.90;;;;;;5059019;28;20951;-80
2024/01/01 08:26:56;;;;;;;0.30;0.20;;;4.90;99.90;;;;;;5058873;28;20490;-80
2024/01/01 08:29:23;;;;;;;0.30;0.30;;;4.90;99.90;;;;;;5058554;28;20938;-81
2024/01/01 08:31:49;;;;;;;0.30;0.30;;;4.90;99.90;;;;;;5058128;28;20446;-79
2024/01/01 08:34:16;;;;;;;0.67;0.30;;;4.90;99.90;;;;;;5058038;28;20955;-80
2024/01/01 08:36:43;;;;;;;0.30;0.30;;;4.90;99.90;;;;;;5059236;28;20434;-80
2024/01/01 08:39:10;;;;;;;0.30;0.30;;;4.90;99.90;;;;;;5059144;28;20477;-79
2024/01/01 08:41:43;;;;;;;0.40;0.30;;;5.00;99.90;;;;;;5058384;28;20450;-80
2024/01/01 08:44:10;;;;;;;0.93;0.40;;;5.10;99.90;;;;;;5058615;28;20452;-79
2024/01/01 08:46:37;;;;;;;0.50;0.50;;;5.30;99.90;;;;;;5059223;28;20481;-80
2024/01/01 08:49:03;;;;;;;0.40;0.30;;;5.40;99.90;;;;;;5059168;28;20473;-81
2024/01/01 08:51:30;;;;;;;1.90;0.40;;;5.50;99.90;;;;;;5059102;28;20441;-81
2024/01/01 08:53:57;;;;;;;2.53;0.30;;;5.60;99.90;;;;;;5059407;28;20422;-80
2024/01/01 08:56:24;;;;;;;0.83;0.50;;;5.70;99.90;;;;;;5059089;28;20442;-80
2024/01/01 08:58:52;;;;;;;0.40;0.30;;;5.60;99.90;;;;;;5058599;28;20469;-81
2024/01/01 09:01:18;;;;;;;0.30;0.30;;;5.60;99.90;;;;;;5059050;28;20442;-79
2024/01/01 09:03:45;;;;;;;0.60;0.40;;;5.70;99.90;;;;;;5057760;28;20934;-80
2024/01/01 09:06:12;;;;;;;0.90;0.40;;;5.80;99.90;;;;;;5057095;28;20496;-81
2024/01/01 09:08:39;;;;;;;0.40;0.30;;;5.90;99.90;;;;;;5055720;28;20488;-81
2024/01/01 09:11:06;;;;;;;1.50;0.83;;;5.90;99.90;;;;;;5056179;28;20970;-81
2024/01/01 09:13:33;;;;;;;0.40;0.40;;;5.90;99.90;;;;;;5056673;28;20457;-81
2024/01/01 09:16:02;;;;;;;0.30;0.20;;;6.00;99.90;;;;;;5056761;28;20496;-81
2024/01/01 09:18:29;;;;;;;0.30;0.30;;;6.10;99.90;;;;;;5056476;28;20556;-80
2024/01/01 09:20:56;;;;;;;3.83;0.40;;;6.20;99.90;;;;;;5056020;28;20450;-81
2024/01/01 09:23:26;;;;;;;0.30;0.30;;;6.20;99.90;;;;;;5055593;28;20446;-81
2024/01/01 09:25:54;;;;;;;0.40;0.30;;;6.40;99.90;;;;;;5055752;28;20838;-81
2024/01/01 09:28:21;;;;;;;2.60;0.30;;;6.50;99.90;;;;;;5055520;28;20476;-81
2024/01/01 09:30:47;;;;;;;1.13;0.50;;;6.70;99.90;;;;;;5056528;28;20446;-81
2024/01/01 09:33:15;;;;;;;2.53;0.50;;;6.80;99.90;;;;;;5055749;28;20931;-80
2024/01/01 09:35:43;;;;;;;0.30;0.30;;;6.80;99.90;;;;;;5055354;28;20446;-81
2024/01/01 09:38:09;;;;;;;0.30;0.30;;;6.80;99.90;;;;;;5055099;28;20462;-81
2024/01/01 09:40:36;;;;;;;0.30;0.30;;;6.90;99.90;;;;;;5058157;28;20446;-80
2024/01/01 09:43:03;;;;;;;2.93;0.30;;;6.90;99.90;;;;;;5058104;28;20441;-81
2024/01/01 09:45:31;;;;;;;0.40;0.30;;;7.00;99.90;;;;;;5054476;28;20437;-81
2024/01/01 09:47:58;;;;;;;3.33;0.30;;;7.10;99.90;;;;;;5054264;28;20481;-81
2024/01/01 09:50:26;;;;;;;12.50;0.63;;;7.20;99.90;;;;;;5054958;28;20450;-81
2024/01/01 09:52:59;;;;;;;3.00;0.53;;;7.50;99.90;;;;;;5054332;28;20457;-82
2024/01/01 09:55:25;;;;;;;2.73;1.07;;;8.10;99.90;;;;;;5054214;28;20799;-81
2024/01/01 09:57:52;;;;;;;0.30;0.30;;;8.90;99.90;;;;;;5053977;28;20469;-81
2024/01/01 10:00:22;;;;;;;0.30;0.30;;;9.80;99.90;;;;;;5053599;28;20509;-79
2024/01/01 10:02:49;;;;;;;0.40;0.40;;;10.60;99.90;;;;;;5053573;28;20426;-80
2024/01/01 10:05:17;;;;;;;0.30;0.30;;;11.10;99.90;;;;;;5053274;28;21187;-80
2024/01/01 10:07:48;;;;;;;1.10;0.40;;;11.20;99.90;;;;;;5053196;28;20496;-80
2024/01/01 10:10:27;;;;;;;1.23;0.53;;;11.40;99.90;;;;;;5053752;28;20418;-80
2024/01/01 10:12:53;;;;;;;2.10;0.60;;;11.70;99.90;;;;;;5053488;28;20417;-80
2024/01/01 10:15:21;;;;;;;0.30;0.30;;;11.80;99.90;;;;;;5053497;28;20441;-79
2024/01/01 10:17:48;;;;;;;0.40;0.40;;;11.50;99.90;;;;;;5053266;28;20458;-79
2024/01/01 10:20:18;;;;;;;0.60;0.50;;;11.40;99.90;;;;;;5053610;28;20437;-79
2024/01/01 10:22:47;;;;;;;2.67;0.40;;;11.00;99.90;;;;;;5053254;28;20919;-79
2024/01/01 10:25:15;;;;;;;1.67;0.63;;;10.40;99.90;;;;;;5053667;28;20452;-80
2024/01/01 10:27:43;;;;;;;0.50;0.40;;;9.80;99.90;;;;;;5053465;28;20539;-80
2024/01/01 10:30:11;;;;;;;10.73;0.40;;;9.40;99.90;;;;;;5057077;28;20571;-79
2024/01/01 10:32:39;;;;;;;0.40;0.30;;;9.30;99.90;;;;;;5057348;28;20457;-79
2024/01/01 10:35:09;;;;;;;0.70;0.33;;;9.20;99.90;;;;;;5056974;28;20449;-80
2024/01/01 10:37:37;;;;;;;0.30;0.30;;;9.10;99.90;;;;;;5057347;28;20464;-80
2024/01/01 10:40:06;;;;;;;0.57;0.40;;;9.00;99.90;;;;;;5057626;28;20445;-79
2024/01/01 10:42:34;;;;;;;6.10;0.80;;;8.80;99.90;;;;;;5057018;28;20449;-80
2024/01/01 10:45:03;;;;;;;1.63;0.40;;;8.90;99.90;;;;;;5057379;28;20858;-80
2024/01/01 10:47:30;;;;;;;0.50;0.40;;;8.80;99.90;;;;;;5057292;28;20496;-80
2024/01/01 10:50:11;;;;;;;0.70;0.50;;;8.80;99.90;;;;;;5057726;28;20442;-80
2024/01/01 10:52:51;;;;;;;1.23;0.63;;;8.70;99.90;;;;;;5057329;28;20426;-80
2024/01/01 10:55:54;;;;;;;0.77;0.30;;;8.80;99.90;;;;;;5057525;28;20425;-80
2024/01/01 10:58:37;;;;;;;0.73;0.40;;;8.80;99.90;;;;;;5057461;28;20464;-80
2024/01/01 11:01:08;;;;;;;1.07;0.50;;;8.80;99.90;;;;;;5057860;28;20430;-79
2024/01/01 11:03:36;;;;;;;1.13;0.60;;;8.70;99.90;;;;;;5057152;28;20473;-79
2024/01/01 11:06:26;;;;;;;2.87;0.50;;;8.80;99.90;;;;;;5057454;28;20806;-80
2024/01/01 11:08:53;;;;;;;0.30;0.30;;;8.70;99.90;;;;;;5057031;28;20485;-80
2024/01/01 11:11:27;;;;;;;2.00;0.40;;;8.70;99.90;;;;;;5056956;28;20938;-80
2024/01/01 11:13:55;;;;;;;0.40;0.40;;;8.70;99.90;;;;;;5057055;28;20829;-80
2024/01/01 11:16:23;;;;;;;0.63;0.50;;;8.60;99.90;;;;;;5056922;28;20536;-80
2024/01/01 11:18:49;;;;;;;0.40;0.37;;;8.60;99.90;;;;;;5056585;28;20466;-80
2024/01/01 11:21:32;;;;;;;0.97;0.40;;;8.60;99.90;;;;;;5056898;28;20433;-80
2024/01/01 11:24:01;;;;;;;6.57;0.77;;;8.50;99.90;;;;;;5054020;28;20568;-80
2024/01/01 11:26:34;;;;;;;1.57;0.43;;;8.50;99.90;;;;;;5056337;28;20796;-80
2024/01/01 11:29:03;;;;;;;4.33;0.60;;;8.60;99.90;;;;;;5056838;28;20465;-80
2024/01/01 11:31:31;;;;;;;0.40;0.40;;;8.60;99.90;;;;;;5056868;28;20468;-80
2024/01/01 11:34:02;;;;;;;0.87;0.47;;;8.60;99.90;;;;;;5057644;28;20433;-81
2024/01/01 11:36:29;;;;;;;0.80;0.80;;;8.50;99.90;;;;;;5058006;28;20454;-81
2024/01/01 11:38:56;;;;;;;0.30;0.30;;;8.50;99.90;;;;;;5057728;28;20466;-82
2024/01/01 11:41:24;;;;;;;0.83;0.30;;;8.50;99.90;;;;;;5056798;28;20800;-82
2024/01/01 11:43:52;;;;;;;6.67;0.53;;;8.50;99.90;;;;;;5057578;28;20476;-81
2024/01/01 11:46:26;;;;;;;0.30;0.30;;;8.50;99.90;;;;;;5058287;28;20449;-82
2024/01/01 11:48:57;;;;;;;1.33;0.50;;;8.60;99.90;;;;;;5057790;28;20493;-81
2024/01/01 11:51:24;;;;;;;0.30;0.30;;;8.60;99.90;;;;;;5062185;28;20457;-80
2024/01/01 11:54:07;;;;;;;0.40;0.30;;;8.60;99.90;;;;;;5056640;28;20453;-82
2024/01/01 11:56:35;;;;;;;0.40;0.30;;;8.60;99.90;;;;;;5056423;28;20434;-82
2024/01/01 11:59:06;;;;;;;0.30;0.20;;;8.60;99.90;;;;;;5056237;28;20472;-82
2024/01/01 12:01:32;;;;;;;0.30;0.23;;;8.60;99.90;;;;;;5056137;28;20449;-82
2024/01/01 12:04:01;;;;;;;0.60;0.40;;;8.50;99.90;;;;;;5055935;28;20456;-82
2024/01/01 12:06:28;;;;;;;1.70;0.50;;;8.40;99.90;;;;;;5056324;28;20450;-82
2024/01/01 12:09:09;;;;;;;0.30;0.20;;;8.40;99.90;;;;;;5055740;28;20489;-82
2024/01/01 12:11:37;;;;;;;0.40;0.30;;;8.20;99.90;;;;;;5056189;28;20507;-81
2024/01/01 12:14:05;;;;;;;0.87;0.30;;;8.10;99.90;;;;;;5056686;28;20993;-81
2024/01/01 12:16:33;;;;;;;4.30;0.97;;;8.00;99.90;;;;;;5057199;28;20446;-81
2024/01/01 12:19:01;;;;;;;1.10;0.40;;;7.90;99.90;;;;;;5056138;28;20843;-81
2024/01/01 12:21:39;;;;;;;2.67;0.33;;;7.80;99.90;;;;;;5056189;28;20461;-81
2024/01/01 12:24:08;;;;;;;0.40;0.37;;;7.80;99.90;;;;;;5056968;28;20434;-81
2024/01/01 12:26:35;;;;;;;3.40;0.60;;;7.80;99.90;;;;;;5056331;28;20446;-81
2024/01/01 12:29:14;;;;;;;1.73;0.50;;;7.80;99.90;;;;;;5055992;28;20486;-81
2024/01/01 12:31:42;;;;;;;0.40;0.30;;;7.80;99.90;;;;;;5055879;28;20453;-81
2024/01/01 12:34:12;;;;;;;2.93;0.73;;;7.90;99.90;;;;;;5056249;28;20450;-82
2024/01/01 12:36:39;;;;;;;2.60;0.30;;;7.80;99.90;;;;;;5056613;28;20428;-81
2024/01/01 12:39:06;;;;;;;1.27;0.57;;;7.90;99.90;;;;;;5055678;28;20462;-82
2024/01/01 12:41:33;;;;;;;2.30;0.30;;;8.00;99.90;;;;;;5055765;28;20446;-81
2024/01/01 12:44:00;;;;;;;3.60;0.50;;;8.10;99.90;;;;;;5055786;28;20445;-81
2024/01/01 12:46:28;;;;;;;1.03;0.40;;;8.20;99.90;;;;;;5055834;28;20445;-81
2024/01/01 12:48:55;;;;;;;0.40;0.40;;;8.20;99.90;;;;;;5056774;28;20486;-81
2024/01/01 12:51:23;;;;;;;2.10;0.40;;;8.30;99.90;;;;;;5057868;28;20482;-82
2024/01/01 12:53:52;;;;;;;1.50;0.40;;;8.40;99.90;;;;;;5057102;28;20545;-82
2024/01/01 12:56:19;;;;;;;31.17;2.80;;;8.40;99.90;;;;;;5057655;28;20450;-83
2024/01/01 12:58:46;;;;;;;0.50;0.50;;;8.50;99.90;;;;;;5059704;28;20453;-82
2024/01/01 13:01:13;;;;;;;0.40;0.33;;;8.60;99.90;;;;;;5059816;28;20446;-81